Time;durP1;ratioP1;P1;durP2;ratioP2;P2;SDS_P1;SDS_P2;PMS_P1;PMS_P2;Temp;Humidity;BMP_temperature;BMP_pressure;BME280_temperature;BME280_humidity;BME280_pressure;Samples;Min_cycle;Max_cycle;Signal;HPM_P1;HPM_P2
2021/06/17 00:00:21;;;;;;;5.88;2.50;;;563.70;1510.40;;;;;;5094126;28;20071;-67
2021/06/17 00:02:48;;;;;;;7.53;3.03;;;563.70;1510.40;;;;;;5093823;28;20032;-66
2021/06/17 00:05:17;;;;;;;5.13;2.80;;;563.60;1510.40;;;;;;5093626;28;20036;-67
2021/06/17 00:07:44;;;;;;;9.48;3.72;;;563.60;1510.40;;;;;;5075768;28;20040;-67
2021/06/17 00:10:20;;;;;;;8.52;3.42;;;563.60;1510.40;;;;;;5077489;28;20063;-67
2021/06/17 00:12:46;;;;;;;9.85;3.30;;;563.60;1510.40;;;;;;5098014;28;20047;-66
2021/06/17 00:15:13;;;;;;;12.00;3.20;;;563.60;1510.40;;;;;;5097819;28;20024;-66
2021/06/17 00:17:41;;;;;;;5.30;3.20;;;563.50;1536.00;;;;;;5097898;28;20049;-67
2021/06/17 00:20:07;;;;;;;10.88;3.45;;;563.50;1536.00;;;;;;5079514;28;20036;-67
2021/06/17 00:22:33;;;;;;;9.65;2.92;;;563.40;1536.00;;;;;;5097766;28;20047;-66
2021/06/17 00:24:59;;;;;;;8.65;3.53;;;563.40;1536.00;;;;;;5097664;28;20477;-67
2021/06/17 00:27:26;;;;;;;7.68;3.85;;;563.30;1536.00;;;;;;5097966;28;20020;-67
2021/06/17 00:29:52;;;;;;;13.57;3.15;;;563.20;1561.60;;;;;;5097763;28;20027;-67
2021/06/17 00:32:19;;;;;;;6.78;3.78;;;563.20;1561.60;;;;;;5097213;28;20051;-67
2021/06/17 00:34:45;;;;;;;7.13;4.05;;;563.20;1561.60;;;;;;5097674;28;20024;-67
2021/06/17 00:37:11;;;;;;;15.57;6.00;;;563.20;1561.60;;;;;;5097153;28;20020;-67
2021/06/17 00:39:39;;;;;;;14.02;6.80;;;538.50;1561.60;;;;;;5097783;28;20532;-66
2021/06/17 00:42:06;;;;;;;9.95;6.45;;;563.20;1561.60;;;;;;5097295;28;20020;-66
2021/06/17 00:44:32;;;;;;;12.88;7.20;;;538.50;1561.60;;;;;;5096807;28;20036;-67
2021/06/17 00:46:57;;;;;;;9.88;5.95;;;538.50;1561.60;;;;;;5097450;28;20028;-66
2021/06/17 00:49:23;;;;;;;10.73;4.60;;;538.40;1561.60;;;;;;5097390;28;20095;-67
2021/06/17 00:51:49;;;;;;;8.23;4.90;;;538.40;1536.00;;;;;;5097101;28;20024;-67
2021/06/17 00:54:31;;;;;;;7.13;4.50;;;538.30;1536.00;;;;;;5097158;28;20032;-67
2021/06/17 00:57:04;;;;;;;10.73;5.82;;;538.30;1536.00;;;;;;5097707;28;20032;-67
2021/06/17 00:59:30;;;;;;;16.58;6.22;;;538.30;1536.00;;;;;;5096939;28;20027;-66
2021/06/17 01:01:56;;;;;;;13.07;7.30;;;538.30;1561.60;;;;;;5097100;28;20024;-67
2021/06/17 01:04:28;;;;;;;16.70;9.07;;;538.20;1561.60;;;;;;5096859;28;20370;-66
2021/06/17 01:06:55;;;;;;;16.20;9.68;;;538.20;1561.60;;;;;;5097132;28;20028;-67
2021/06/17 01:10:03;;;;;;;13.43;9.93;;;538.20;1561.60;;;;;;5096789;28;20461;-66
2021/06/17 01:12:40;;;;;;;15.52;9.70;;;538.10;1561.60;;;;;;4995186;28;20031;-66
2021/06/17 01:15:09;;;;;;;12.50;6.28;;;538.10;1587.20;;;;;;4995041;28;20104;-66
2021/06/17 01:17:39;;;;;;;10.80;5.13;;;538.10;1587.20;;;;;;4995039;28;20057;-66
2021/06/17 01:20:08;;;;;;;8.55;4.88;;;538.00;1587.20;;;;;;4995316;28;20080;-66
2021/06/17 01:22:48;;;;;;;9.77;4.95;;;538.00;1587.20;;;;;;4994854;28;20392;-67
2021/06/17 01:25:34;;;;;;;17.65;5.88;;;537.90;1612.80;;;;;;4994858;28;20034;-66
2021/06/17 01:28:05;;;;;;;13.60;6.53;;;537.90;1612.80;;;;;;4994937;28;20101;-66
2021/06/17 01:30:35;;;;;;;9.00;5.38;;;537.80;1612.80;;;;;;4994817;28;20034;-66
2021/06/17 01:33:03;;;;;;;11.13;4.60;;;537.80;1612.80;;;;;;4994542;28;20050;-66
2021/06/17 01:35:38;;;;;;;9.10;5.13;;;537.70;1612.80;;;;;;4994659;28;20125;-66
2021/06/17 01:38:06;;;;;;;9.27;5.13;;;537.70;1612.80;;;;;;4994633;28;20022;-67
2021/06/17 01:40:35;;;;;;;9.50;5.30;;;537.70;1612.80;;;;;;4994837;28;20019;-66
2021/06/17 01:43:02;;;;;;;8.18;5.28;;;537.70;1612.80;;;;;;4994563;28;20039;-66
2021/06/17 01:45:29;;;;;;;13.05;5.63;;;537.70;1612.80;;;;;;4994178;28;20125;-67
2021/06/17 01:47:57;;;;;;;14.93;4.80;;;537.60;1612.80;;;;;;4994577;28;20472;-67
2021/06/17 01:50:26;;;;;;;5.10;4.32;;;537.60;1612.80;;;;;;5094497;28;20070;-67
2021/06/17 01:52:53;;;;;;;9.32;4.60;;;537.60;1612.80;;;;;;5096029;28;20077;-66
2021/06/17 01:55:20;;;;;;;10.73;4.70;;;537.60;1638.40;;;;;;5095886;28;20023;-67
2021/06/17 01:57:48;;;;;;;9.63;4.95;;;512.90;1612.80;;;;;;5095945;28;20040;-66
2021/06/17 02:00:14;;;;;;;10.48;4.70;;;537.60;1638.40;;;;;;5095305;28;20119;-67
2021/06/17 02:02:41;;;;;;;8.52;4.10;;;512.90;1612.80;;;;;;5095601;28;20074;-67
2021/06/17 02:05:08;;;;;;;6.05;3.92;;;512.80;1612.80;;;;;;5077423;28;20078;-66
2021/06/17 02:07:34;;;;;;;8.43;4.35;;;512.80;1612.80;;;;;;5096056;28;20021;-66
2021/06/17 02:10:01;;;;;;;6.47;3.88;;;512.80;1612.80;;;;;;5096084;28;20024;-66
2021/06/17 02:12:28;;;;;;;13.10;4.68;;;512.80;1612.80;;;;;;5095652;28;20032;-66
2021/06/17 02:14:54;;;;;;;12.18;4.30;;;512.80;1612.80;;;;;;5095215;28;20047;-66
2021/06/17 02:17:22;;;;;;;13.55;5.10;;;512.70;1612.80;;;;;;5096117;28;20072;-67
2021/06/17 02:19:49;;;;;;;8.60;4.57;;;512.70;1612.80;;;;;;5095590;28;20035;-66
2021/06/17 02:22:17;;;;;;;8.45;4.78;;;512.60;1612.80;;;;;;5095286;28;20512;-64
2021/06/17 02:24:51;;;;;;;9.50;5.40;;;512.60;1612.80;;;;;;5095200;28;20077;-62
2021/06/17 02:27:30;;;;;;;8.95;4.38;;;512.60;1612.80;;;;;;5095360;28;20028;-63
2021/06/17 02:30:02;;;;;;;5.78;4.40;;;512.60;1612.80;;;;;;5095233;28;20024;-62
2021/06/17 02:32:29;;;;;;;9.63;4.13;;;512.50;1612.80;;;;;;5094578;28;20056;-62
2021/06/17 02:34:57;;;;;;;9.40;4.32;;;512.40;1638.40;;;;;;5095312;28;20024;-62
2021/06/17 02:37:25;;;;;;;10.35;4.82;;;512.40;1638.40;;;;;;5095156;28;20469;-63
2021/06/17 02:39:52;;;;;;;11.82;4.45;;;512.30;1638.40;;;;;;5095133;28;20066;-63
2021/06/17 02:42:23;;;;;;;8.23;3.97;;;512.30;1638.40;;;;;;5095384;28;20460;-62
2021/06/17 02:44:50;;;;;;;9.20;4.40;;;512.20;1638.40;;;;;;5094941;28;20036;-62
2021/06/17 02:47:17;;;;;;;9.32;4.22;;;512.20;1638.40;;;;;;5094666;28;20472;-62
2021/06/17 02:49:42;;;;;;;9.50;4.53;;;512.20;1638.40;;;;;;5095062;28;20051;-63
2021/06/17 02:52:09;;;;;;;11.32;4.68;;;512.20;1638.40;;;;;;5094939;28;20047;-63
2021/06/17 02:54:35;;;;;;;14.57;4.50;;;512.10;1638.40;;;;;;5094898;28;20067;-62
2021/06/17 02:57:16;;;;;;;8.27;4.07;;;512.10;1638.40;;;;;;5094976;28;20017;-62
2021/06/17 03:00:05;;;;;;;12.70;4.10;;;512.10;1664.00;;;;;;5094795;28;20054;-62
2021/06/17 03:02:57;;;;;;;8.93;4.10;;;512.00;1664.00;;;;;;5094668;28;20024;-62
2021/06/17 03:05:26;;;;;;;14.63;5.03;;;512.00;1664.00;;;;;;5094487;28;20109;-62
2021/06/17 03:08:21;;;;;;;11.30;4.25;;;487.30;1664.00;;;;;;5095042;28;20020;-62
2021/06/17 03:10:51;;;;;;;9.75;4.78;;;487.30;1664.00;;;;;;4993067;28;20605;-63
2021/06/17 03:13:21;;;;;;;21.30;4.65;;;487.30;1664.00;;;;;;4992766;28;20069;-62
2021/06/17 03:15:49;;;;;;;7.30;4.75;;;512.00;1664.00;;;;;;4992721;28;20419;-65
2021/06/17 03:18:16;;;;;;;9.43;4.75;;;487.30;1664.00;;;;;;4992764;28;20034;-62
2021/06/17 03:20:43;;;;;;;20.20;6.13;;;487.30;1664.00;;;;;;4992835;28;20039;-63
2021/06/17 03:23:15;;;;;;;11.95;4.63;;;512.00;1664.00;;;;;;4992798;28;20050;-63
2021/06/17 03:25:44;;;;;;;29.58;5.05;;;487.30;1664.00;;;;;;4992672;28;20121;-68
2021/06/17 03:28:12;;;;;;;5.93;4.22;;;487.30;1664.00;;;;;;4992657;28;20505;-62
2021/06/17 03:30:41;;;;;;;9.68;3.95;;;487.20;1664.00;;;;;;4992625;28;20037;-63
2021/06/17 03:33:09;;;;;;;10.73;4.53;;;487.20;1664.00;;;;;;4992402;28;20129;-63
2021/06/17 03:35:36;;;;;;;5.78;4.30;;;487.20;1664.00;;;;;;4992705;28;20034;-62
2021/06/17 03:38:03;;;;;;;33.72;4.90;;;487.20;1664.00;;;;;;4992405;28;20054;-62
2021/06/17 03:40:30;;;;;;;6.32;4.32;;;487.20;1689.60;;;;;;4992590;28;20088;-62
2021/06/17 03:42:57;;;;;;;10.60;4.13;;;487.20;1689.60;;;;;;4992388;28;20102;-62
2021/06/17 03:45:25;;;;;;;10.10;4.70;;;487.20;1689.60;;;;;;4991452;28;20126;-62
2021/06/17 03:47:52;;;;;;;9.32;3.92;;;487.20;1689.60;;;;;;5071372;28;20043;-62
2021/06/17 03:50:19;;;;;;;6.97;4.75;;;487.20;1689.60;;;;;;5093909;28;20461;-62
2021/06/17 03:52:50;;;;;;;8.88;4.28;;;487.20;1689.60;;;;;;5093996;28;20036;-66
2021/06/17 03:55:17;;;;;;;7.22;3.95;;;487.20;1689.60;;;;;;5093913;28;20026;-63
2021/06/17 03:57:48;;;;;;;10.10;4.38;;;487.20;1689.60;;;;;;5094040;28;20026;-64
2021/06/17 04:00:15;;;;;;;9.35;4.45;;;487.20;1689.60;;;;;;5093902;28;20024;-63
2021/06/17 04:02:41;;;;;;;11.25;4.80;;;487.20;1689.60;;;;;;5093889;28;20031;-62
2021/06/17 04:05:09;;;;;;;10.18;4.38;;;487.20;1689.60;;;;;;5093834;28;20044;-62
2021/06/17 04:07:38;;;;;;;20.40;4.80;;;487.30;1689.60;;;;;;5093209;28;20020;-62
2021/06/17 04:10:06;;;;;;;15.35;4.85;;;487.30;1715.20;;;;;;5093785;28;20031;-62
2021/06/17 04:12:33;;;;;;;15.23;4.47;;;487.30;1689.60;;;;;;5093778;28;20103;-62
2021/06/17 04:15:02;;;;;;;22.15;4.90;;;487.30;1689.60;;;;;;5093564;28;20024;-62
2021/06/17 04:17:32;;;;;;;12.48;4.72;;;487.30;1689.60;;;;;;5093580;28;20032;-63
2021/06/17 04:20:04;;;;;;;6.63;4.15;;;512.00;1689.60;;;;;;5093746;28;20073;-62
2021/06/17 04:22:30;;;;;;;12.30;4.72;;;512.00;1689.60;;;;;;5093692;28;20027;-62
2021/06/17 04:25:06;;;;;;;11.98;4.10;;;512.00;1689.60;;;;;;5093579;28;20409;-63
2021/06/17 04:27:33;;;;;;;7.82;4.20;;;512.10;1689.60;;;;;;5093937;28;20154;-69
2021/06/17 04:30:00;;;;;;;8.20;4.00;;;512.10;1689.60;;;;;;5093625;28;20024;-62
2021/06/17 04:32:29;;;;;;;8.00;4.30;;;512.20;1664.00;;;;;;5093367;28;20505;-62
2021/06/17 04:34:57;;;;;;;10.20;4.28;;;512.20;1664.00;;;;;;5093394;28;20028;-63
2021/06/17 04:37:26;;;;;;;13.85;4.45;;;512.30;1664.00;;;;;;5093357;28;20377;-62
2021/06/17 04:39:55;;;;;;;7.90;4.07;;;512.40;1664.00;;;;;;5093345;28;20035;-63
2021/06/17 04:42:21;;;;;;;9.55;4.55;;;512.50;1664.00;;;;;;5093384;28;20098;-63
2021/06/17 04:44:47;;;;;;;7.18;4.10;;;512.60;1638.40;;;;;;5093629;28;20028;-65
2021/06/17 04:47:16;;;;;;;8.07;4.90;;;512.80;1638.40;;;;;;5093303;28;20032;-64
2021/06/17 04:49:42;;;;;;;7.53;4.50;;;537.60;1664.00;;;;;;5093441;28;20024;-63
2021/06/17 04:52:13;;;;;;;9.25;4.22;;;537.70;1638.40;;;;;;5093365;28;20034;-64
2021/06/17 04:54:39;;;;;;;9.77;4.65;;;537.90;1612.80;;;;;;5093404;28;20016;-63
2021/06/17 04:57:05;;;;;;;13.10;4.55;;;538.10;1612.80;;;;;;5096437;28;20086;-64
2021/06/17 04:59:30;;;;;;;8.40;5.20;;;538.30;1587.20;;;;;;5097145;28;20024;-63
2021/06/17 05:01:58;;;;;;;10.23;4.32;;;538.50;1561.60;;;;;;5097057;28;20416;-64
2021/06/17 05:04:24;;;;;;;11.65;4.30;;;563.30;1561.60;;;;;;5078819;28;20034;-71
2021/06/17 05:12:23;;;;;;;21.77;4.93;;;564.00;1484.80;;;;;;5041132;28;20031;-75
2021/06/17 05:14:48;;;;;;;12.05;4.20;;;588.80;1484.80;;;;;;5043712;28;20156;-75
2021/06/17 05:17:14;;;;;;;10.77;4.10;;;589.00;1484.80;;;;;;5037861;28;20033;-64
2021/06/17 05:19:40;;;;;;;7.50;3.78;;;589.30;1459.20;;;;;;5042503;28;20418;-64
2021/06/17 05:22:08;;;;;;;7.72;4.18;;;589.50;1433.60;;;;;;5042140;28;20025;-63
2021/06/17 05:24:33;;;;;;;8.75;3.92;;;614.40;1408.00;;;;;;5043661;28;20463;-63
2021/06/17 05:27:00;;;;;;;8.40;3.92;;;614.50;1382.40;;;;;;5042194;28;20076;-75
2021/06/17 05:29:25;;;;;;;7.78;4.05;;;614.70;1382.40;;;;;;5042072;28;20474;-75
2021/06/17 05:31:51;;;;;;;7.45;4.13;;;614.80;1382.40;;;;;;5043193;28;20080;-71
2021/06/17 05:34:17;;;;;;;5.53;3.58;;;614.90;1356.80;;;;;;5046869;28;20046;-62
2021/06/17 05:36:43;;;;;;;6.07;3.50;;;615.10;1331.20;;;;;;5038986;28;20025;-63
2021/06/17 05:39:08;;;;;;;7.30;3.30;;;615.10;1356.80;;;;;;5044762;28;20084;-63
2021/06/17 05:41:34;;;;;;;6.43;3.85;;;615.30;1331.20;;;;;;5050044;28;20021;-75
2021/06/17 05:44:00;;;;;;;5.32;3.22;;;640.00;1331.20;;;;;;5052669;28;20414;-75
2021/06/17 05:46:26;;;;;;;8.88;4.15;;;640.10;1331.20;;;;;;5055046;28;20127;-67
2021/06/17 05:48:52;;;;;;;14.95;4.65;;;640.30;1305.60;;;;;;5094378;28;20031;-64
2021/06/17 05:51:17;;;;;;;12.63;4.03;;;640.50;1280.00;;;;;;5094800;28;20434;-76
2021/06/17 05:53:45;;;;;;;15.48;4.15;;;640.70;1280.00;;;;;;5094797;28;20024;-75
2021/06/17 05:56:10;;;;;;;21.45;4.43;;;640.80;1280.00;;;;;;5095857;28;20028;-75
2021/06/17 05:58:36;;;;;;;16.70;4.40;;;665.60;1280.00;;;;;;5095458;28;20031;-63
2021/06/17 06:01:03;;;;;;;12.90;5.30;;;665.80;1280.00;;;;;;5095403;28;20024;-63
2021/06/17 06:03:29;;;;;;;11.07;3.50;;;666.00;1280.00;;;;;;5096129;28;20036;-70
2021/06/17 06:05:55;;;;;;;4.93;3.50;;;666.10;1228.80;;;;;;5095615;28;20492;-73
2021/06/17 06:08:21;;;;;;;6.88;4.15;;;666.30;1228.80;;;;;;5093315;28;20031;-74
2021/06/17 06:10:46;;;;;;;10.50;4.18;;;666.50;1228.80;;;;;;5093614;28;20103;-76
2021/06/17 06:13:12;;;;;;;12.43;3.50;;;691.20;1228.80;;;;;;5093423;28;20020;-73
2021/06/17 06:15:38;;;;;;;12.55;4.30;;;691.30;1228.80;;;;;;5095014;28;20054;-73
2021/06/17 06:18:26;;;;;;;9.10;4.28;;;691.50;1203.20;;;;;;5095344;28;20465;-73
2021/06/17 06:20:56;;;;;;;23.60;4.72;;;691.70;1177.60;;;;;;5095716;28;20024;-65
2021/06/17 06:23:23;;;;;;;12.93;3.75;;;691.70;1152.00;;;;;;5095613;28;20103;-65
2021/06/17 06:25:49;;;;;;;12.02;4.03;;;691.80;1152.00;;;;;;5094539;28;20044;-69
2021/06/17 06:28:16;;;;;;;11.48;3.70;;;692.00;1152.00;;;;;;5091600;28;20464;-63
2021/06/17 06:30:42;;;;;;;8.27;3.67;;;716.80;1177.60;;;;;;5094314;28;20027;-64
2021/06/17 06:33:09;;;;;;;8.65;3.50;;;717.00;1152.00;;;;;;5094006;28;20047;-71
2021/06/17 06:35:35;;;;;;;7.68;3.75;;;717.20;1126.40;;;;;;5094202;28;20039;-64
2021/06/17 06:38:02;;;;;;;11.43;3.67;;;717.30;1100.80;;;;;;5094646;28;20035;-68
2021/06/17 06:40:27;;;;;;;7.65;3.15;;;717.50;1075.20;;;;;;5094491;28;20106;-69
2021/06/17 06:42:55;;;;;;;8.88;3.47;;;717.70;1075.20;;;;;;5094506;28;20107;-71
2021/06/17 06:45:21;;;;;;;11.00;3.63;;;742.50;1100.80;;;;;;5091739;28;20032;-66
2021/06/17 06:47:47;;;;;;;13.90;3.55;;;742.60;1075.20;;;;;;5094443;28;20354;-70
2021/06/17 06:50:13;;;;;;;12.25;3.80;;;742.80;1075.20;;;;;;5094280;28;20031;-73
2021/06/17 06:52:40;;;;;;;9.15;3.42;;;743.00;1049.60;;;;;;5068015;28;20024;-64
2021/06/17 06:55:06;;;;;;;9.50;3.50;;;743.10;1049.60;;;;;;5094237;28;20031;-63
2021/06/17 06:57:32;;;;;;;11.38;2.65;;;743.30;1024.00;;;;;;5094108;28;20397;-63
2021/06/17 06:59:58;;;;;;;9.25;2.95;;;768.00;998.40;;;;;;5094186;28;20020;-62
2021/06/17 07:02:24;;;;;;;9.27;3.05;;;768.20;998.40;;;;;;5094327;28;20078;-63
2021/06/17 07:04:50;;;;;;;6.72;2.90;;;768.30;998.40;;;;;;5094602;28;20423;-63
2021/06/17 07:07:16;;;;;;;6.15;2.80;;;768.60;972.80;;;;;;5094656;28;20036;-63
2021/06/17 07:09:41;;;;;;;9.65;3.35;;;768.70;947.20;;;;;;5094631;28;20028;-63
2021/06/17 07:12:08;;;;;;;12.23;2.85;;;793.60;972.80;;;;;;5094438;28;20081;-63
2021/06/17 07:14:34;;;;;;;6.95;2.42;;;793.80;947.20;;;;;;5094342;28;20034;-63
2021/06/17 07:17:00;;;;;;;9.20;2.92;;;793.90;972.80;;;;;;5094423;28;20024;-63
2021/06/17 07:19:26;;;;;;;8.82;3.40;;;794.10;972.80;;;;;;5094326;28;20028;-63
2021/06/17 07:21:52;;;;;;;12.48;2.90;;;794.20;972.80;;;;;;5094297;28;20085;-64
2021/06/17 07:24:18;;;;;;;9.93;2.65;;;794.40;947.20;;;;;;5094908;28;20095;-63
2021/06/17 07:26:45;;;;;;;14.07;2.75;;;819.20;947.20;;;;;;5094185;28;20501;-63
2021/06/17 07:29:11;;;;;;;14.30;3.17;;;819.40;921.60;;;;;;5094268;28;20035;-64
2021/06/17 07:31:37;;;;;;;10.63;3.35;;;819.50;921.60;;;;;;5094078;28;20036;-63
2021/06/17 07:34:03;;;;;;;11.07;2.85;;;819.70;896.00;;;;;;5094364;28;20102;-63
2021/06/17 07:36:30;;;;;;;8.95;3.15;;;819.80;896.00;;;;;;5094550;28;20107;-62
2021/06/17 07:38:56;;;;;;;12.80;2.80;;;819.90;896.00;;;;;;5094253;28;20042;-66
2021/06/17 07:41:24;;;;;;;14.68;3.78;;;820.00;896.00;;;;;;5094381;28;20020;-63
2021/06/17 07:43:50;;;;;;;9.35;2.78;;;844.80;896.00;;;;;;5094034;28;20016;-63
2021/06/17 07:46:15;;;;;;;10.27;2.70;;;845.00;896.00;;;;;;5093552;28;20039;-63
2021/06/17 07:48:41;;;;;;;10.40;2.25;;;845.00;870.40;;;;;;5094205;28;20436;-64
2021/06/17 07:51:08;;;;;;;7.82;2.58;;;845.30;870.40;;;;;;5094222;28;20082;-63
2021/06/17 07:53:34;;;;;;;9.80;3.15;;;845.30;870.40;;;;;;5094482;28;20046;-64
2021/06/17 07:56:01;;;;;;;12.55;2.22;;;845.50;870.40;;;;;;5076141;28;20540;-63
2021/06/17 07:58:27;;;;;;;18.48;2.40;;;845.60;870.40;;;;;;5094018;28;20056;-63
2021/06/17 08:00:53;;;;;;;10.82;2.60;;;845.70;870.40;;;;;;5093950;28;20020;-64
2021/06/17 08:03:18;;;;;;;16.38;2.88;;;870.50;844.80;;;;;;5093936;28;20012;-64
2021/06/17 08:05:44;;;;;;;15.60;2.75;;;870.60;819.20;;;;;;5094080;28;20040;-63
2021/06/17 08:08:10;;;;;;;7.13;2.28;;;870.60;793.60;;;;;;5093772;28;20020;-64
2021/06/17 08:10:36;;;;;;;11.60;2.72;;;870.80;793.60;;;;;;5093769;28;20024;-63
2021/06/17 08:13:02;;;;;;;9.05;2.38;;;870.80;793.60;;;;;;5093718;28;20099;-64
2021/06/17 08:15:28;;;;;;;4.47;2.28;;;871.00;793.60;;;;;;5093756;28;20534;-64
2021/06/17 08:17:54;;;;;;;10.88;2.15;;;871.10;819.20;;;;;;5093532;28;20462;-64
2021/06/17 08:20:20;;;;;;;8.95;2.33;;;871.20;793.60;;;;;;5093745;28;20016;-66
2021/06/17 08:22:46;;;;;;;9.63;2.20;;;871.20;768.00;;;;;;5093726;28;20099;-63
2021/06/17 08:25:12;;;;;;;9.32;2.45;;;896.00;742.40;;;;;;5093698;28;20036;-64
2021/06/17 08:27:38;;;;;;;14.55;2.25;;;896.00;742.40;;;;;;5074688;28;20036;-64
2021/06/17 08:30:08;;;;;;;14.98;3.33;;;896.10;742.40;;;;;;5093616;28;20032;-63
2021/06/17 08:32:33;;;;;;;8.18;2.40;;;896.20;742.40;;;;;;5097576;28;20374;-64
2021/06/17 08:34:59;;;;;;;7.70;2.05;;;896.50;716.80;;;;;;5097488;28;20024;-63
2021/06/17 08:37:25;;;;;;;5.68;1.95;;;896.60;691.20;;;;;;5097582;28;20093;-64
2021/06/17 08:39:55;;;;;;;10.50;1.95;;;896.60;716.80;;;;;;5078865;28;20377;-64
2021/06/17 08:42:28;;;;;;;14.50;2.42;;;896.70;716.80;;;;;;5097529;28;20020;-64
2021/06/17 08:44:56;;;;;;;12.95;2.47;;;896.90;691.20;;;;;;5097320;28;20016;-64
2021/06/17 08:47:22;;;;;;;19.85;3.03;;;896.90;665.60;;;;;;5097294;28;20046;-64
2021/06/17 08:49:53;;;;;;;14.35;2.38;;;921.60;716.80;;;;;;5097343;28;20016;-64
2021/06/17 08:52:20;;;;;;;10.23;2.33;;;921.60;716.80;;;;;;5097092;28;20469;-64
2021/06/17 08:54:46;;;;;;;8.57;2.10;;;921.60;716.80;;;;;;5096982;28;20024;-66
2021/06/17 08:57:14;;;;;;;10.15;2.20;;;921.70;716.80;;;;;;5097036;28;20032;-64
2021/06/17 08:59:41;;;;;;;5.00;1.95;;;921.70;716.80;;;;;;5097285;28;20016;-63
2021/06/17 09:02:07;;;;;;;21.30;2.60;;;921.90;691.20;;;;;;5096857;28;20443;-64
2021/06/17 09:04:34;;;;;;;5.35;2.42;;;922.00;691.20;;;;;;5097052;28;20035;-64
2021/06/17 09:07:05;;;;;;;6.70;2.30;;;922.00;691.20;;;;;;5096758;28;20055;-63
2021/06/17 09:09:40;;;;;;;11.05;2.03;;;922.10;665.60;;;;;;5096721;28;20028;-64
2021/06/17 09:12:09;;;;;;;12.23;2.25;;;922.20;665.60;;;;;;5096646;28;20500;-63
2021/06/17 09:14:36;;;;;;;9.57;2.50;;;922.30;665.60;;;;;;5097020;28;20415;-64
2021/06/17 09:17:07;;;;;;;8.07;2.00;;;922.30;640.00;;;;;;5096546;28;20393;-64
2021/06/17 09:19:38;;;;;;;9.30;2.03;;;922.50;665.60;;;;;;5096585;28;20130;-64
2021/06/17 09:22:05;;;;;;;15.15;2.40;;;947.20;665.60;;;;;;5096670;28;20020;-63
2021/06/17 09:24:34;;;;;;;6.35;2.20;;;947.40;640.00;;;;;;5096660;28;20028;-64
2021/06/17 09:27:47;;;;;;;18.58;2.45;;;947.50;665.60;;;;;;5096533;28;20044;-65
2021/06/17 09:30:22;;;;;;;10.70;2.78;;;947.70;640.00;;;;;;5092861;28;20036;-64
2021/06/17 09:32:55;;;;;;;10.10;2.10;;;947.30;665.60;;;;;;5096248;28;20401;-64
2021/06/17 09:35:26;;;;;;;12.55;2.38;;;922.40;665.60;;;;;;5096806;28;20038;-64
2021/06/17 09:38:05;;;;;;;17.80;2.65;;;921.90;691.20;;;;;;5096150;28;20396;-64
2021/06/17 09:40:50;;;;;;;16.38;2.58;;;921.60;716.80;;;;;;5096508;28;20035;-63
2021/06/17 09:43:34;;;;;;;20.33;2.83;;;896.70;691.20;;;;;;5096116;28;20051;-64
2021/06/17 09:46:01;;;;;;;15.65;2.28;;;896.60;691.20;;;;;;5096140;28;20492;-63
2021/06/17 09:48:32;;;;;;;14.40;2.60;;;896.90;691.20;;;;;;5096691;28;20030;-64
2021/06/17 09:50:58;;;;;;;12.13;2.83;;;921.70;691.20;;;;;;5096101;28;20055;-64
2021/06/17 09:53:26;;;;;;;11.68;3.13;;;922.10;691.20;;;;;;5095994;28;20479;-64
2021/06/17 09:55:52;;;;;;;7.03;2.15;;;922.40;691.20;;;;;;5096005;28;20047;-64
2021/06/17 09:58:38;;;;;;;5.22;1.90;;;947.20;665.60;;;;;;5095711;28;20466;-64
2021/06/17 10:01:11;;;;;;;2.47;1.85;;;947.50;640.00;;;;;;5095928;28;20060;-65
2021/06/17 10:03:37;;;;;;;28.08;2.60;;;947.80;640.00;;;;;;5095998;28;20034;-64
2021/06/17 10:06:19;;;;;;;6.22;2.30;;;947.90;614.40;;;;;;5095624;28;20384;-64
2021/06/17 10:08:45;;;;;;;7.72;2.60;;;948.10;614.40;;;;;;5096362;28;20107;-65
2021/06/17 10:11:13;;;;;;;8.55;2.50;;;972.80;640.00;;;;;;5095627;28;20032;-64
2021/06/17 10:13:39;;;;;;;6.07;2.53;;;973.00;640.00;;;;;;5095512;28;20028;-64
2021/06/17 10:16:06;;;;;;;6.95;2.45;;;973.20;640.00;;;;;;5095154;28;20025;-66
2021/06/17 10:18:32;;;;;;;5.93;1.77;;;973.30;614.40;;;;;;5095617;28;20365;-64
2021/06/17 10:20:59;;;;;;;5.00;1.73;;;973.30;614.40;;;;;;5095663;28;20048;-65
2021/06/17 10:23:25;;;;;;;5.40;2.20;;;973.30;614.40;;;;;;5094862;28;20107;-65
2021/06/17 10:25:51;;;;;;;4.10;1.92;;;973.30;614.40;;;;;;5095313;28;20032;-65
2021/06/17 10:28:41;;;;;;;4.47;2.00;;;973.30;614.40;;;;;;5095794;28;20024;-66
2021/06/17 10:31:07;;;;;;;3.47;1.85;;;973.00;614.40;;;;;;5095322;28;20023;-65
2021/06/17 10:33:38;;;;;;;8.30;2.33;;;948.00;614.40;;;;;;5095043;28;20055;-80
2021/06/17 10:36:24;;;;;;;10.30;2.05;;;947.50;614.40;;;;;;5095227;28;20389;-66
2021/06/17 10:39:10;;;;;;;15.55;2.63;;;922.40;640.00;;;;;;5095609;28;20038;-66
2021/06/17 10:41:57;;;;;;;37.95;3.63;;;922.00;665.60;;;;;;4993633;28;20499;-75
2021/06/17 10:44:38;;;;;;;18.35;2.95;;;921.60;665.60;;;;;;4935563;29;20039;-65
2021/06/17 10:47:05;;;;;;;26.45;3.50;;;921.60;665.60;;;;;;4935327;29;20047;-65
2021/06/17 10:49:42;;;;;;;18.42;2.72;;;896.80;665.60;;;;;;4935387;29;20039;-67
2021/06/17 10:52:31;;;;;;;12.35;2.58;;;896.60;691.20;;;;;;4938790;28;20102;-67
2021/06/17 10:54:59;;;;;;;10.43;2.08;;;896.20;716.80;;;;;;4942222;29;20035;-65
2021/06/17 10:57:52;;;;;;;8.90;2.13;;;871.30;716.80;;;;;;4935032;29;20019;-65
2021/06/17 11:00:25;;;;;;;11.50;2.60;;;871.20;716.80;;;;;;4936041;29;20540;-65
2021/06/17 11:02:56;;;;;;;9.18;2.20;;;896.10;716.80;;;;;;4935365;29;20063;-65
2021/06/17 11:05:31;;;;;;;6.03;2.08;;;896.60;691.20;;;;;;4935338;29;20075;-65
2021/06/17 11:08:21;;;;;;;7.97;2.38;;;896.60;691.20;;;;;;4935052;29;20231;-66
2021/06/17 11:10:52;;;;;;;12.15;2.78;;;896.50;691.20;;;;;;4936253;29;20115;-68
2021/06/17 11:13:38;;;;;;;5.97;2.25;;;896.30;691.20;;;;;;4942861;29;20134;-67
2021/06/17 11:16:12;;;;;;;5.25;2.33;;;896.00;691.20;;;;;;4936240;29;20042;-67
2021/06/17 11:19:03;;;;;;;15.63;2.50;;;871.10;691.20;;;;;;4973655;28;20038;-73
2021/06/17 11:21:27;;;;;;;5.28;2.50;;;870.90;742.40;;;;;;5055766;28;20020;-66
2021/06/17 11:23:56;;;;;;;5.43;2.15;;;870.70;742.40;;;;;;5092451;28;20129;-66
2021/06/17 11:26:47;;;;;;;10.23;2.10;;;870.70;768.00;;;;;;5090007;28;20470;-66
2021/06/17 11:29:20;;;;;;;9.70;2.40;;;871.00;742.40;;;;;;5091315;28;20533;-68
2021/06/17 11:31:49;;;;;;;;;;;871.20;716.80;;;;;;5092636;28;20486;-66
2021/06/17 11:34:36;;;;;;;15.30;2.90;;;896.20;716.80;;;;;;5092532;28;19979;-66
2021/06/17 11:37:12;;;;;;;25.73;2.90;;;896.70;691.20;;;;;;5093427;28;20032;-67
2021/06/17 11:39:38;;;;;;;11.40;2.45;;;921.70;691.20;;;;;;5094165;28;20024;-67
2021/06/17 11:42:06;;;;;;;14.00;2.63;;;922.00;691.20;;;;;;5094190;28;20024;-66
2021/06/17 11:44:32;;;;;;;9.60;2.28;;;922.10;640.00;;;;;;5094319;28;20099;-71
2021/06/17 11:47:16;;;;;;;7.47;2.17;;;922.50;640.00;;;;;;5093946;28;20036;-66
2021/06/17 11:49:47;;;;;;;;;;;947.30;640.00;;;;;;5094617;28;20027;-66
2021/06/17 11:52:19;;;;;;;13.02;2.80;;;947.40;640.00;;;;;;5094058;28;19927;-66
2021/06/17 11:54:49;;;;;;;23.55;2.83;;;947.60;614.40;;;;;;5093868;28;20048;-67
2021/06/17 11:57:16;;;;;;;9.57;2.10;;;947.70;614.40;;;;;;5094070;28;20377;-66
2021/06/17 11:59:57;;;;;;;6.30;2.22;;;947.70;588.80;;;;;;5094096;28;20051;-75
2021/06/17 12:02:23;;;;;;;4.50;1.98;;;947.90;588.80;;;;;;5093707;28;20101;-67
2021/06/17 12:05:04;;;;;;;10.00;2.53;;;948.00;588.80;;;;;;5093314;28;20095;-77
2021/06/17 12:07:38;;;;;;;8.98;1.80;;;948.00;588.80;;;;;;5093843;28;20089;-67
2021/06/17 12:10:19;;;;;;;6.63;1.80;;;972.80;640.00;;;;;;5093799;28;20154;-67
2021/06/17 12:12:56;;;;;;;4.80;2.33;;;972.90;614.40;;;;;;5074943;28;20039;-67
2021/06/17 12:15:33;;;;;;;5.43;2.15;;;972.90;614.40;;;;;;5093313;28;20032;-72
2021/06/17 12:18:00;;;;;;;9.32;2.10;;;973.00;614.40;;;;;;5093687;28;20020;-66
2021/06/17 12:20:32;;;;;;;4.57;2.08;;;973.00;588.80;;;;;;5093213;28;20028;-67
2021/06/17 12:22:59;;;;;;;2.83;2.13;;;973.00;614.40;;;;;;5093733;28;20024;-67
2021/06/17 12:25:27;;;;;;;3.58;1.85;;;973.00;614.40;;;;;;5093626;28;20028;-67
2021/06/17 12:27:54;;;;;;;3.70;1.75;;;973.00;588.80;;;;;;5093750;28;20109;-67
2021/06/17 12:30:33;;;;;;;6.63;1.75;;;973.00;614.40;;;;;;5093507;28;20055;-67
2021/06/17 12:33:20;;;;;;;4.32;1.70;;;973.00;614.40;;;;;;5092957;28;20077;-67
2021/06/17 12:36:05;;;;;;;5.07;1.80;;;972.90;614.40;;;;;;5093628;28;20489;-67